createdAt,value
2023-05-16T00:00:26.755Z,100815.50
2023-05-16T00:01:30.728Z,100809.25
2023-05-16T00:02:34.284Z,100818.03
2023-05-16T00:03:40.700Z,100809.09
2023-05-16T00:04:43.985Z,100811.41
2023-05-16T00:05:47.247Z,100807.84
2023-05-16T00:06:50.402Z,100810.75
2023-05-16T00:07:53.479Z,100805.53
2023-05-16T00:08:56.757Z,100811.97
2023-05-16T00:10:00.501Z,100810.47
2023-05-16T00:11:04.516Z,100804.25
2023-05-16T00:12:08.729Z,100810.66
2023-05-16T00:13:12.707Z,100805.44
2023-05-16T00:14:16.110Z,100798.19
2023-05-16T00:15:20.979Z,100799.66
2023-05-16T00:16:26.600Z,100790.91
2023-05-16T00:17:29.849Z,100794.63
2023-05-16T00:18:33.120Z,100791.94
2023-05-16T00:19:36.289Z,100796.69
2023-05-16T00:20:39.386Z,100792.31
2023-05-16T00:21:42.631Z,100795.38
2023-05-16T00:22:46.737Z,100793.91
2023-05-16T00:23:49.709Z,100786.66
2023-05-16T00:24:53.066Z,100784.97
2023-05-16T00:25:56.676Z,100788.28
2023-05-16T00:27:00.146Z,100792.06
2023-05-16T00:28:03.935Z,100793.06
2023-05-16T00:29:07.900Z,100786.66
2023-05-16T00:30:12.021Z,100785.16
2023-05-16T00:31:15.499Z,100788.88
2023-05-16T00:32:19.585Z,100796.13
2023-05-16T00:33:23.393Z,100795.78
2023-05-16T00:34:27.969Z,100784.97
2023-05-16T00:35:31.815Z,100782.06
2023-05-16T00:36:36.811Z,100789.97
2023-05-16T00:37:40.269Z,100786.25
2023-05-16T00:38:43.992Z,100786.25
2023-05-16T00:39:46.939Z,100786.06
2023-05-16T00:40:50.220Z,100784.22
2023-05-16T00:41:53.724Z,100784.22
2023-05-16T00:42:57.066Z,100784.22
2023-05-16T00:44:00.679Z,100776.09
2023-05-16T00:45:04.490Z,100784.22
2023-05-16T00:46:08.196Z,100775.44
2023-05-16T00:47:12.215Z,100773.75
2023-05-16T00:48:15.888Z,100776.84
2023-05-16T00:49:19.478Z,100770.44
2023-05-16T00:50:22.608Z,100770.78
2023-05-16T00:51:26.340Z,100767.44
2023-05-16T00:52:29.764Z,100768.28
2023-05-16T00:53:33.296Z,100768.47
2023-05-16T00:54:36.957Z,100767.81
2023-05-16T00:55:40.118Z,100767.16
2023-05-16T00:56:44.284Z,100769.84
2023-05-16T00:57:47.486Z,100765.50
2023-05-16T00:58:50.771Z,100767.16
2023-05-16T00:59:54.398Z,100755.31
2023-05-16T01:00:57.874Z,100762.88
2023-05-16T01:02:02.251Z,100756.63
2023-05-16T01:03:06.562Z,100753.75
2023-05-16T01:04:10.222Z,100759.97
2023-05-16T01:05:14.121Z,100757.28
2023-05-16T01:06:17.656Z,100745.81
2023-05-16T01:07:20.625Z,100751.22
2023-05-16T01:08:23.956Z,100754.75
2023-05-16T01:09:27.796Z,100747.88
2023-05-16T01:10:37.403Z,100751.59
2023-05-16T01:11:55.415Z,100745.34
2023-05-16T01:13:17.034Z,100737.44
2023-05-16T01:14:34.379Z,100738.66
2023-05-16T01:15:43.600Z,100731.09
2023-05-16T01:16:47.003Z,100730.44
2023-05-16T01:17:58.684Z,100732.28
2023-05-16T01:19:02.519Z,100731.47
2023-05-16T01:20:35.285Z,100735.84
2023-05-16T01:21:54.005Z,100726.06
2023-05-16T01:23:31.728Z,100725.44
2023-05-16T01:24:37.801Z,100716.47
2023-05-16T01:26:07.489Z,100719.34
2023-05-16T01:27:11.248Z,100725.78
2023-05-16T01:28:16.151Z,100725.59
2023-05-16T01:29:19.186Z,100723.75
2023-05-16T01:30:22.598Z,100719.34
2023-05-16T01:31:26.125Z,100718.34
2023-05-16T01:32:29.746Z,100719.34
2023-05-16T01:33:33.323Z,100723.91
2023-05-16T01:34:36.501Z,100713.97
2023-05-16T01:35:47.027Z,100712.09
2023-05-16T01:37:25.422Z,100705.84
2023-05-16T01:38:46.394Z,100705.00
2023-05-16T01:40:00.965Z,100707.91
2023-05-16T01:41:09.637Z,100701.88
2023-05-16T01:42:16.383Z,100699.78
2023-05-16T01:43:22.429Z,100706.25
2023-05-16T01:44:51.925Z,100701.88
2023-05-16T01:46:01.574Z,100702.88
2023-05-16T01:47:08.427Z,100705.94
2023-05-16T01:48:18.509Z,100705.94
2023-05-16T01:49:28.287Z,100708.00
2023-05-16T01:50:31.646Z,100698.41
2023-05-16T01:51:34.707Z,100697.97
2023-05-16T01:52:53.755Z,100705.41
2023-05-16T01:53:59.419Z,100703.94
2023-05-16T01:55:04.595Z,100691.63
2023-05-16T01:56:11.292Z,100697.41
2023-05-16T01:57:14.762Z,100697.75
2023-05-16T01:58:21.519Z,100700.69
2023-05-16T01:59:25.467Z,100698.50
2023-05-16T02:00:30.606Z,100701.59
2023-05-16T02:01:36.959Z,100703.47
2023-05-16T02:02:41.316Z,100700.94
2023-05-16T02:03:45.591Z,100699.28
2023-05-16T02:04:50.501Z,100699.28
2023-05-16T02:05:54.356Z,100693.88
2023-05-16T02:06:57.584Z,100686.81
2023-05-16T02:08:00.912Z,100690.34
2023-05-16T02:09:04.629Z,100690.53
2023-05-16T02:10:08.530Z,100690.53
2023-05-16T02:11:11.684Z,100688.00
2023-05-16T02:12:15.116Z,100688.66
2023-05-16T02:13:19.074Z,100688.00
2023-05-16T02:14:22.320Z,100691.53
2023-05-16T02:15:27.748Z,100679.91
2023-05-16T02:16:32.008Z,100681.41
2023-05-16T02:17:35.433Z,100681.41
2023-05-16T02:18:39.667Z,100675.00
2023-05-16T02:19:42.860Z,100682.25
2023-05-16T02:20:46.730Z,100676.00
2023-05-16T02:21:52.471Z,100683.09
2023-05-16T02:22:55.551Z,100678.03
2023-05-16T02:23:59.264Z,100685.13
2023-05-16T02:25:03.863Z,100692.56
2023-05-16T02:26:07.778Z,100690.53
2023-05-16T02:27:11.008Z,100688.94
2023-05-16T02:28:14.156Z,100695.16
2023-05-16T02:29:17.337Z,100701.72
2023-05-16T02:30:20.661Z,100697.41
2023-05-16T02:31:34.137Z,100698.84
2023-05-16T02:32:38.012Z,100700.84
2023-05-16T02:33:42.029Z,100691.53
2023-05-16T02:34:45.875Z,100696.56
2023-05-16T02:35:49.388Z,100692.66
2023-05-16T02:36:52.405Z,100699.38
2023-05-16T02:37:56.646Z,100698.84
2023-05-16T02:39:00.892Z,100693.06
2023-05-16T02:40:08.489Z,100691.03
2023-05-16T02:41:14.079Z,100690.03
2023-05-16T02:42:18.530Z,100691.66
2023-05-16T02:43:21.754Z,100694.38
2023-05-16T02:44:24.879Z,100696.44
2023-05-16T02:45:28.554Z,100692.88
2023-05-16T02:46:35.165Z,100703.00
2023-05-16T02:47:40.239Z,100695.59
2023-05-16T02:48:43.780Z,100684.78
2023-05-16T02:49:46.932Z,100682.38
2023-05-16T02:50:50.627Z,100690.47
2023-05-16T02:51:54.381Z,100689.28
2023-05-16T02:53:00.321Z,100685.38
2023-05-16T02:54:03.919Z,100690.41
2023-05-16T02:56:15.035Z,100692.56
2023-05-16T02:57:18.014Z,100686.16
2023-05-16T02:58:21.668Z,100690.88
2023-05-16T02:59:24.698Z,100680.09
2023-05-16T03:00:28.176Z,100682.13
2023-05-16T03:01:32.259Z,100671.69
2023-05-16T03:02:35.286Z,100680.81
2023-05-16T03:03:38.905Z,100668.34
2023-05-16T03:04:42.541Z,100667.72
2023-05-16T03:05:47.259Z,100664.16
2023-05-16T03:06:51.741Z,100659.97
2023-05-16T03:07:55.360Z,100654.56
2023-05-16T03:08:58.362Z,100659.28
2023-05-16T03:10:02.661Z,100665.34
2023-05-16T03:11:06.098Z,100669.06
2023-05-16T03:12:09.077Z,100662.19
2023-05-16T03:13:12.791Z,100660.69
2023-05-16T03:14:15.917Z,100664.41
2023-05-16T03:15:19.555Z,100671.97
2023-05-16T03:16:22.973Z,100677.16
2023-05-16T03:17:27.952Z,100673.28
2023-05-16T03:18:31.821Z,100677.00
2023-05-16T03:19:35.746Z,100674.13
2023-05-16T03:20:38.903Z,100677.84
2023-05-16T03:21:42.069Z,100680.34
2023-05-16T03:22:46.140Z,100675.81
2023-05-16T03:23:49.925Z,100676.44
2023-05-16T03:24:53.709Z,100667.72
2023-05-16T03:25:57.270Z,100674.13
2023-05-16T03:27:00.742Z,100677.84
2023-05-16T03:28:05.527Z,100673.28
2023-05-16T03:29:09.217Z,100666.03
2023-05-16T03:30:13.255Z,100674.28
2023-05-16T03:31:17.089Z,100672.44
2023-05-16T03:32:20.923Z,100677.84
2023-05-16T03:33:25.393Z,100676.59
2023-05-16T03:34:28.686Z,100672.78
2023-05-16T03:35:35.578Z,100675.69
2023-05-16T03:36:40.733Z,100675.47
2023-05-16T03:37:43.749Z,100676.16
2023-05-16T03:38:47.174Z,100674.97
2023-05-16T03:39:50.776Z,100668.34
2023-05-16T03:40:54.447Z,100675.41
2023-05-16T03:41:58.460Z,100675.41
2023-05-16T03:43:02.217Z,100672.34
2023-05-16T03:44:05.585Z,100658.03
2023-05-16T03:45:09.235Z,100658.84
2023-05-16T03:46:12.473Z,100641.00
2023-05-16T03:47:15.590Z,100642.66
2023-05-16T03:48:18.826Z,100636.63
2023-05-16T03:49:27.631Z,100637.25
2023-05-16T03:50:31.043Z,100637.25
2023-05-16T03:51:34.709Z,100640.63
2023-05-16T03:52:38.262Z,100636.06
2023-05-16T03:53:42.011Z,100632.34
2023-05-16T03:54:45.791Z,100642.97
2023-05-16T03:55:49.301Z,100645.66
2023-05-16T03:56:52.553Z,100642.97
2023-05-16T03:57:56.298Z,100639.44
2023-05-16T03:58:59.546Z,100640.28
2023-05-16T04:00:04.463Z,100652.09
2023-05-16T04:01:29.017Z,100645.00
2023-05-16T04:02:32.281Z,100638.59
2023-05-16T04:03:35.388Z,100640.44
2023-05-16T04:04:39.120Z,100633.19
2023-05-16T04:05:42.848Z,100634.88
2023-05-16T04:06:46.515Z,100632.34
2023-05-16T04:07:49.592Z,100637.38
2023-05-16T04:08:52.714Z,100642.59
2023-05-16T04:09:56.925Z,100636.81
2023-05-16T04:11:00.490Z,100641.19
2023-05-16T04:12:04.185Z,100640.34
2023-05-16T04:13:07.668Z,100633.25
2023-05-16T04:14:11.675Z,100628.72
2023-05-16T04:15:15.529Z,100633.09
2023-05-16T04:16:18.554Z,100637.66
2023-05-16T04:17:22.333Z,100634.09
2023-05-16T04:18:25.886Z,100631.63
2023-05-16T04:19:29.313Z,100632.47
2023-05-16T04:20:33.138Z,100631.63
2023-05-16T04:21:36.873Z,100634.50
2023-05-16T04:22:40.518Z,100628.25
2023-05-16T04:23:43.729Z,100627.41
2023-05-16T04:24:47.403Z,100627.41
2023-05-16T04:25:51.607Z,100623.03
2023-05-16T04:26:56.123Z,100624.91
2023-05-16T04:27:59.450Z,100629.09
2023-05-16T04:29:02.943Z,100630.56
2023-05-16T04:30:07.073Z,100625.38
2023-05-16T04:31:11.256Z,100628.91
2023-05-16T04:32:14.954Z,100628.06
2023-05-16T04:33:19.264Z,100626.78
2023-05-16T04:34:23.560Z,100619.69
2023-05-16T04:35:28.866Z,100627.81
2023-05-16T04:36:32.496Z,100624.44
2023-05-16T04:37:36.709Z,100624.44
2023-05-16T04:38:39.872Z,100627.31
2023-05-16T04:39:43.582Z,100620.28
2023-05-16T04:40:47.256Z,100630.22
2023-05-16T04:41:50.940Z,100631.22
2023-05-16T04:42:55.146Z,100628.53
2023-05-16T04:43:58.088Z,100623.16
2023-05-16T04:45:01.676Z,100623.16
2023-05-16T04:46:05.529Z,100626.47
2023-05-16T04:47:09.040Z,100623.31
2023-05-16T04:48:12.799Z,100620.63
2023-05-16T04:49:15.906Z,100619.38
2023-05-16T04:50:19.270Z,100617.25
2023-05-16T04:51:22.794Z,100630.97
2023-05-16T04:52:26.108Z,100618.84
2023-05-16T04:53:29.657Z,100626.28
2023-05-16T04:54:33.400Z,100625.63
2023-05-16T04:55:36.908Z,100625.34
2023-05-16T04:56:40.287Z,100627.75
2023-05-16T04:57:43.388Z,100624.38
2023-05-16T04:58:47.327Z,100620.03
2023-05-16T04:59:50.706Z,100625.09
2023-05-16T05:00:54.501Z,100633.09
2023-05-16T05:01:58.255Z,100631.28
2023-05-16T05:03:01.937Z,100626.28
2023-05-16T05:04:05.237Z,100629.97
2023-05-16T05:05:09.940Z,100622.06
2023-05-16T05:06:13.238Z,100626.63
2023-05-16T05:07:16.503Z,100620.22
2023-05-16T05:08:19.777Z,100629.31
2023-05-16T05:09:23.119Z,100624.94
2023-05-16T05:10:28.119Z,100631.16
2023-05-16T05:11:31.749Z,100632.00
2023-05-16T05:12:35.657Z,100612.13
2023-05-16T05:13:38.659Z,100620.69
2023-05-16T05:14:42.051Z,100614.75
2023-05-16T05:15:44.897Z,100622.66
2023-05-16T05:16:48.004Z,100622.66
2023-05-16T05:17:51.568Z,100624.72
2023-05-16T05:18:55.091Z,100620.13
2023-05-16T05:21:02.049Z,100622.81
2023-05-16T05:22:05.426Z,100624.22
2023-05-16T05:23:09.216Z,100636.41
2023-05-16T05:24:13.016Z,100625.88
2023-05-16T05:25:16.732Z,100625.03
2023-05-16T05:26:20.093Z,100627.09
2023-05-16T05:27:23.107Z,100619.34
2023-05-16T05:28:26.111Z,100623.72
2023-05-16T05:29:29.182Z,100625.41
2023-05-16T05:30:32.728Z,100629.19
2023-05-16T05:31:36.139Z,100636.75
2023-05-16T05:32:39.257Z,100632.22
2023-05-16T05:33:43.492Z,100639.28
2023-05-16T05:34:46.626Z,100633.53
2023-05-16T05:35:50.239Z,100633.19
2023-05-16T05:36:53.798Z,100633.50
2023-05-16T05:37:57.107Z,100642.72
2023-05-16T05:39:00.650Z,100645.53
2023-05-16T05:40:04.956Z,100642.78
2023-05-16T05:41:08.748Z,100647.44
2023-05-16T05:42:12.665Z,100654.44
2023-05-16T05:43:16.514Z,100646.66
2023-05-16T05:44:20.386Z,100644.94
2023-05-16T05:45:23.786Z,100644.22
2023-05-16T05:46:27.703Z,100639.78
2023-05-16T05:47:31.075Z,100635.31
2023-05-16T05:48:34.726Z,100645.38
2023-05-16T05:49:38.371Z,100635.44
2023-05-16T05:50:41.990Z,100631.81
2023-05-16T05:51:45.444Z,100631.84
2023-05-16T05:52:49.028Z,100633.41
2023-05-16T05:53:53.462Z,100635.56
2023-05-16T05:54:56.661Z,100628.25
2023-05-16T05:56:00.287Z,100630.19
2023-05-16T05:57:03.417Z,100627.88
2023-05-16T05:58:07.418Z,100623.47
2023-05-16T05:59:11.166Z,100626.53
2023-05-16T06:00:14.655Z,100624.34
2023-05-16T06:01:17.997Z,100629.38
2023-05-16T06:02:22.322Z,100624.75
2023-05-16T06:03:25.947Z,100622.19
2023-05-16T06:04:28.989Z,100629.66
2023-05-16T06:05:32.050Z,100631.84
2023-05-16T06:06:35.543Z,100630.72
2023-05-16T06:07:38.679Z,100626.81
2023-05-16T06:08:42.235Z,100635.41
2023-05-16T06:09:46.032Z,100638.38
2023-05-16T06:10:49.540Z,100638.75
2023-05-16T06:11:52.871Z,100637.56
2023-05-16T06:12:56.116Z,100640.25
2023-05-16T06:13:59.309Z,100640.09
2023-05-16T06:15:03.056Z,100632.28
2023-05-16T06:16:09.457Z,100651.13
2023-05-16T06:17:13.206Z,100649.38
2023-05-16T06:18:16.983Z,100648.56
2023-05-16T06:19:20.185Z,100646.75
2023-05-16T06:20:24.069Z,100652.72
2023-05-16T06:21:28.009Z,100656.56
2023-05-16T06:22:32.205Z,100651.75
2023-05-16T06:23:36.420Z,100655.41
2023-05-16T06:24:40.106Z,100647.72
2023-05-16T06:25:43.593Z,100649.84
2023-05-16T06:26:50.335Z,100650.91
2023-05-16T06:27:53.431Z,100648.19
2023-05-16T06:28:56.932Z,100653.28
2023-05-16T06:30:00.476Z,100659.41
2023-05-16T06:31:03.811Z,100657.00
2023-05-16T06:32:07.839Z,100662.75
2023-05-16T06:33:11.286Z,100664.16
2023-05-16T06:34:14.323Z,100664.81
2023-05-16T06:35:17.639Z,100668.78
2023-05-16T06:36:21.250Z,100663.63
2023-05-16T06:37:26.670Z,100665.78
2023-05-16T06:38:29.872Z,100678.59
2023-05-16T06:39:33.628Z,100670.88
2023-05-16T06:40:38.421Z,100671.91
2023-05-16T06:41:42.214Z,100673.44
2023-05-16T06:42:52.103Z,100675.47
2023-05-16T06:43:55.913Z,100675.78
2023-05-16T06:44:59.396Z,100676.84
2023-05-16T06:46:02.906Z,100683.25
2023-05-16T06:47:07.040Z,100684.66
2023-05-16T06:48:10.372Z,100684.91
2023-05-16T06:49:13.631Z,100684.91
2023-05-16T06:50:17.302Z,100687.56
2023-05-16T06:51:20.411Z,100689.38
2023-05-16T06:52:23.475Z,100688.66
2023-05-16T06:53:27.226Z,100693.97
2023-05-16T06:54:30.312Z,100695.13
2023-05-16T06:55:33.686Z,100698.03
2023-05-16T06:56:37.091Z,100698.25
2023-05-16T06:57:40.876Z,100694.66
2023-05-16T06:58:44.695Z,100705.72
2023-05-16T06:59:48.427Z,100701.44
2023-05-16T07:00:52.159Z,100694.38
2023-05-16T07:01:55.583Z,100693.97
2023-05-16T07:02:59.492Z,100688.63
2023-05-16T07:04:03.344Z,100687.94
2023-05-16T07:05:07.861Z,100689.34
2023-05-16T07:06:11.698Z,100687.19
2023-05-16T07:07:14.818Z,100675.50
2023-05-16T07:08:17.980Z,100691.59
2023-05-16T07:09:22.517Z,100691.44
2023-05-16T07:10:26.345Z,100689.53
2023-05-16T07:11:29.996Z,100685.69
2023-05-16T07:12:33.987Z,100686.06
2023-05-16T07:13:37.559Z,100684.31
2023-05-16T07:14:41.736Z,100689.28
2023-05-16T07:15:45.024Z,100691.66
2023-05-16T07:16:48.445Z,100692.19
2023-05-16T07:17:51.885Z,100689.16
2023-05-16T07:18:55.607Z,100695.41
2023-05-16T07:19:58.786Z,100703.38
2023-05-16T07:21:01.896Z,100691.56
2023-05-16T07:22:05.942Z,100694.50
2023-05-16T07:23:09.846Z,100685.44
2023-05-16T07:24:13.312Z,100682.31
2023-05-16T07:25:17.329Z,100678.25
2023-05-16T07:26:24.364Z,100684.63
2023-05-16T07:27:28.648Z,100683.75
2023-05-16T07:28:32.105Z,100684.03
2023-05-16T07:29:36.376Z,100675.88
2023-05-16T07:30:39.615Z,100685.84
2023-05-16T07:31:42.686Z,100686.53
2023-05-16T07:32:46.913Z,100685.44
2023-05-16T07:33:50.423Z,100688.63
2023-05-16T07:34:54.247Z,100678.41
2023-05-16T07:36:08.120Z,100682.34
2023-05-16T07:37:19.490Z,100686.81
2023-05-16T07:38:23.486Z,100678.41
2023-05-16T07:39:27.549Z,100681.66
2023-05-16T07:40:31.029Z,100686.69
2023-05-16T07:41:34.890Z,100685.19
2023-05-16T07:42:38.080Z,100685.41
2023-05-16T07:43:41.266Z,100687.03
2023-05-16T07:44:44.249Z,100687.34
2023-05-16T07:45:47.548Z,100693.91
2023-05-16T07:46:51.729Z,100689.09
2023-05-16T07:47:55.221Z,100696.72
2023-05-16T07:48:58.917Z,100701.81
2023-05-16T07:50:02.783Z,100687.78
2023-05-16T07:51:06.087Z,100696.78
2023-05-16T07:52:09.880Z,100686.16
2023-05-16T07:53:13.530Z,100691.16
2023-05-16T07:54:16.878Z,100685.34
2023-05-16T07:55:20.395Z,100691.41
2023-05-16T07:56:24.594Z,100677.97
2023-05-16T07:57:28.067Z,100678.28
2023-05-16T07:58:31.479Z,100683.53
2023-05-16T07:59:34.420Z,100683.13
2023-05-16T08:00:37.592Z,100675.88
2023-05-16T08:01:41.460Z,100677.53
2023-05-16T08:02:45.539Z,100678.41
2023-05-16T08:03:49.347Z,100679.50
2023-05-16T08:04:52.680Z,100682.34
2023-05-16T08:05:56.373Z,100675.53
2023-05-16T08:07:00.594Z,100683.31
2023-05-16T08:08:03.957Z,100677.63
2023-05-16T08:09:07.089Z,100683.28
2023-05-16T08:10:13.200Z,100685.56
2023-05-16T08:11:16.626Z,100675.31
2023-05-16T08:12:19.765Z,100685.47
2023-05-16T08:13:23.409Z,100676.66
2023-05-16T08:14:26.766Z,100679.13
2023-05-16T08:15:30.540Z,100673.81
2023-05-16T08:16:34.295Z,100673.44
2023-05-16T08:17:39.362Z,100674.84
2023-05-16T08:18:43.671Z,100680.53
2023-05-16T08:19:47.024Z,100681.91
2023-05-16T08:20:50.333Z,100680.59
2023-05-16T08:21:53.795Z,100677.22
2023-05-16T08:22:58.356Z,100681.09
2023-05-16T08:24:01.708Z,100680.50
2023-05-16T08:25:05.026Z,100681.06
2023-05-16T08:26:08.561Z,100682.84
2023-05-16T08:27:13.086Z,100684.09
2023-05-16T08:28:16.910Z,100690.47
2023-05-16T08:29:20.222Z,100677.72
2023-05-16T08:30:23.920Z,100689.69
2023-05-16T08:31:27.188Z,100688.81
2023-05-16T08:32:30.369Z,100691.00
2023-05-16T08:33:33.504Z,100693.97
2023-05-16T08:34:37.257Z,100682.19
2023-05-16T08:35:44.727Z,100682.59
2023-05-16T08:36:48.240Z,100683.88
2023-05-16T08:37:51.505Z,100690.91
2023-05-16T08:38:54.466Z,100680.88
2023-05-16T08:39:58.213Z,100684.31
2023-05-16T08:41:01.604Z,100672.53
2023-05-16T08:42:06.202Z,100674.16
2023-05-16T08:43:09.327Z,100678.47
2023-05-16T08:44:13.674Z,100671.59
2023-05-16T08:45:16.860Z,100679.97
2023-05-16T08:46:23.470Z,100669.06
2023-05-16T08:47:27.065Z,100678.78
2023-05-16T08:48:30.201Z,100671.75
2023-05-16T08:49:33.876Z,100666.84
2023-05-16T08:50:37.210Z,100663.59
2023-05-16T08:51:40.386Z,100661.22
2023-05-16T08:52:44.855Z,100661.94
2023-05-16T08:54:00.166Z,100670.06
2023-05-16T08:55:11.516Z,100660.00
2023-05-16T08:56:15.638Z,100670.16
2023-05-16T08:57:18.745Z,100666.50
2023-05-16T08:58:22.518Z,100669.59
2023-05-16T08:59:25.901Z,100665.72
2023-05-16T09:00:29.130Z,100665.66
2023-05-16T09:01:35.396Z,100662.13
2023-05-16T09:02:42.572Z,100661.03
2023-05-16T09:03:46.264Z,100663.00
2023-05-16T09:04:50.098Z,100668.09
2023-05-16T09:05:53.456Z,100658.41
2023-05-16T09:06:56.918Z,100654.47
2023-05-16T09:08:01.218Z,100659.53
2023-05-16T09:09:05.631Z,100655.25
2023-05-16T09:10:09.132Z,100656.78
2023-05-16T09:11:12.729Z,100659.44
2023-05-16T09:12:16.187Z,100664.19
2023-05-16T09:13:20.056Z,100660.69
2023-05-16T09:14:23.813Z,100657.00
2023-05-16T09:15:32.376Z,100659.41
2023-05-16T09:16:35.856Z,100662.91
2023-05-16T09:17:44.180Z,100659.00
2023-05-16T09:18:56.257Z,100666.56
2023-05-16T09:20:00.098Z,100665.69
2023-05-16T09:21:04.279Z,100664.34
2023-05-16T09:22:11.305Z,100663.84
2023-05-16T09:23:14.279Z,100643.31
2023-05-16T09:24:17.603Z,100649.09
2023-05-16T09:25:29.509Z,100649.63
2023-05-16T09:26:34.324Z,100640.00
2023-05-16T09:27:37.937Z,100658.13
2023-05-16T09:28:41.290Z,100647.03
2023-05-16T09:29:44.943Z,100651.91
2023-05-16T09:30:49.387Z,100644.00
2023-05-16T09:31:52.775Z,100646.25
2023-05-16T09:32:56.047Z,100642.78
2023-05-16T09:33:59.923Z,100650.66
2023-05-16T09:35:03.809Z,100646.78
2023-05-16T09:36:07.445Z,100649.78
2023-05-16T09:37:12.459Z,100653.91
2023-05-16T09:38:17.127Z,100649.31
2023-05-16T09:39:20.521Z,100641.19
2023-05-16T09:40:24.028Z,100653.44
2023-05-16T09:41:27.512Z,100649.25
2023-05-16T09:42:30.737Z,100651.66
2023-05-16T09:43:36.376Z,100650.78
2023-05-16T09:44:41.100Z,100651.84
2023-05-16T09:45:48.548Z,100647.97
2023-05-16T09:46:55.307Z,100654.25
2023-05-16T09:48:08.766Z,100646.50
2023-05-16T09:49:15.375Z,100647.34
2023-05-16T09:50:19.088Z,100648.41
2023-05-16T09:51:24.996Z,100639.50
2023-05-16T09:52:28.782Z,100643.59
2023-05-16T09:53:35.983Z,100647.97
2023-05-16T09:54:39.264Z,100650.59
2023-05-16T09:55:42.466Z,100643.84
2023-05-16T09:56:52.130Z,100637.41
2023-05-16T09:57:55.090Z,100643.00
2023-05-16T09:58:58.595Z,100644.97
2023-05-16T10:00:06.953Z,100645.59
2023-05-16T10:01:11.546Z,100632.16
2023-05-16T10:02:15.258Z,100637.28
2023-05-16T10:03:19.010Z,100634.72
2023-05-16T10:04:22.724Z,100627.56
2023-05-16T10:05:29.384Z,100621.75
2023-05-16T10:06:33.018Z,100629.34
2023-05-16T10:07:36.010Z,100622.53
2023-05-16T10:08:39.919Z,100623.34
2023-05-16T10:09:43.330Z,100622.94
2023-05-16T10:10:47.038Z,100614.13
2023-05-16T10:11:50.808Z,100610.72
2023-05-16T10:12:54.016Z,100608.63
2023-05-16T10:13:57.597Z,100606.50
2023-05-16T10:15:04.654Z,100606.06
2023-05-16T10:16:13.062Z,100617.34
2023-05-16T10:17:16.411Z,100617.63
2023-05-16T10:18:20.689Z,100612.63
2023-05-16T10:19:24.508Z,100600.56
2023-05-16T10:20:28.108Z,100600.47
2023-05-16T10:21:31.303Z,100614.50
2023-05-16T10:22:36.953Z,100602.31
2023-05-16T10:23:43.170Z,100618.88
2023-05-16T10:24:59.515Z,100604.44
2023-05-16T10:26:05.160Z,100606.25
2023-05-16T10:27:08.655Z,100610.88
2023-05-16T10:28:12.884Z,100608.59
2023-05-16T10:29:16.255Z,100615.41
2023-05-16T10:30:19.775Z,100606.25
2023-05-16T10:31:23.461Z,100607.47
2023-05-16T10:32:27.078Z,100606.34
2023-05-16T10:33:30.698Z,100608.03
2023-05-16T10:34:34.472Z,100592.91
2023-05-16T10:35:38.672Z,100598.38
2023-05-16T10:36:42.086Z,100602.19
2023-05-16T10:37:45.820Z,100606.75
2023-05-16T10:38:49.825Z,100604.41
2023-05-16T10:39:53.087Z,100610.97
2023-05-16T10:40:56.760Z,100599.63
2023-05-16T10:42:01.107Z,100598.25
2023-05-16T10:43:07.652Z,100598.16
2023-05-16T10:44:16.976Z,100606.94
2023-05-16T10:45:21.411Z,100607.59
2023-05-16T10:46:24.965Z,100600.56
2023-05-16T10:47:28.380Z,100604.00
2023-05-16T10:48:37.405Z,100593.84
2023-05-16T10:49:44.169Z,100598.03
2023-05-16T10:50:47.409Z,100595.16
2023-05-16T10:52:06.529Z,100592.28
2023-05-16T10:53:34.553Z,100596.94
2023-05-16T10:54:40.114Z,100593.78
2023-05-16T10:55:59.730Z,100589.63
2023-05-16T10:57:07.752Z,100585.13
2023-05-16T10:58:11.492Z,100592.44
2023-05-16T10:59:25.402Z,100584.31
2023-05-16T11:00:28.917Z,100581.56
2023-05-16T11:01:35.833Z,100581.13
2023-05-16T11:02:42.824Z,100580.72
2023-05-16T11:03:58.711Z,100590.88
2023-05-16T11:05:03.120Z,100587.53
2023-05-16T11:06:07.122Z,100583.72
2023-05-16T11:07:10.528Z,100583.59
2023-05-16T11:08:14.945Z,100583.94
2023-05-16T11:09:17.887Z,100591.00
2023-05-16T11:10:22.923Z,100584.84
2023-05-16T11:11:55.007Z,100575.88
2023-05-16T11:13:04.098Z,100578.47
2023-05-16T11:14:07.709Z,100574.44
2023-05-16T11:15:27.230Z,100571.28
2023-05-16T11:16:30.766Z,100571.75
2023-05-16T11:17:41.404Z,100573.00
2023-05-16T11:18:51.883Z,100571.69
2023-05-16T11:20:00.011Z,100576.75
2023-05-16T11:21:05.794Z,100564.16
2023-05-16T11:22:10.054Z,100573.41
2023-05-16T11:23:23.681Z,100566.53
2023-05-16T11:24:34.373Z,100568.47
2023-05-16T11:25:41.735Z,100566.63
2023-05-16T11:26:45.091Z,100568.19
2023-05-16T11:27:48.456Z,100560.56
2023-05-16T11:28:51.674Z,100570.47
2023-05-16T11:29:57.224Z,100563.75
2023-05-16T11:31:01.953Z,100563.63
2023-05-16T11:32:06.557Z,100566.69
2023-05-16T11:33:09.849Z,100556.69
2023-05-16T11:34:16.219Z,100556.84
2023-05-16T11:35:19.779Z,100548.22
2023-05-16T11:36:23.782Z,100556.47
2023-05-16T11:37:27.403Z,100547.78
2023-05-16T11:38:33.579Z,100550.03
2023-05-16T11:39:37.180Z,100544.69
2023-05-16T11:40:44.408Z,100552.78
2023-05-16T11:41:48.921Z,100558.00
2023-05-16T11:42:52.879Z,100541.97
2023-05-16T11:43:56.986Z,100547.28
2023-05-16T11:45:30.343Z,100557.81
2023-05-16T11:46:35.208Z,100544.69
2023-05-16T11:47:39.274Z,100541.66
2023-05-16T11:48:42.416Z,100543.41
2023-05-16T11:49:47.020Z,100539.06
2023-05-16T11:50:54.305Z,100536.97
2023-05-16T11:51:58.314Z,100539.66
2023-05-16T11:53:01.869Z,100537.59
2023-05-16T11:54:08.584Z,100532.34
2023-05-16T11:55:11.976Z,100527.50
2023-05-16T11:56:15.513Z,100527.88
2023-05-16T11:57:19.111Z,100531.50
2023-05-16T11:58:23.802Z,100539.34
2023-05-16T11:59:27.602Z,100538.06
2023-05-16T12:00:30.914Z,100533.72
2023-05-16T12:01:41.018Z,100529.72
2023-05-16T12:02:51.909Z,100524.16
2023-05-16T12:03:58.742Z,100526.75
2023-05-16T12:05:10.562Z,100518.00
2023-05-16T12:06:14.202Z,100528.13
2023-05-16T12:07:17.798Z,100528.31
2023-05-16T12:08:25.549Z,100520.09
2023-05-16T12:09:29.383Z,100527.16
2023-05-16T12:10:35.183Z,100527.63
2023-05-16T12:11:39.276Z,100519.78
2023-05-16T12:12:55.519Z,100522.47
2023-05-16T12:13:58.962Z,100512.25
2023-05-16T12:15:03.864Z,100514.44
2023-05-16T12:16:07.630Z,100520.47
2023-05-16T12:17:11.632Z,100520.41
2023-05-16T12:18:15.290Z,100515.06
2023-05-16T12:19:18.670Z,100516.47
2023-05-16T12:20:21.877Z,100505.47
2023-05-16T12:21:24.815Z,100507.16
2023-05-16T12:22:28.298Z,100508.28